createdAt,value
2023-03-29T00:00:25.807Z,3.70
2023-03-29T00:05:27.394Z,4.63
2023-03-29T00:10:28.954Z,3.50
2023-03-29T00:15:30.524Z,4.90
2023-03-29T00:20:32.097Z,4.47
2023-03-29T00:25:33.678Z,3.93
2023-03-29T00:30:35.300Z,3.30
2023-03-29T00:35:39.423Z,5.13
2023-03-29T00:40:43.933Z,3.20
2023-03-29T00:45:45.612Z,3.07
2023-03-29T00:50:54.746Z,3.30
2023-03-29T00:56:02.495Z,5.87
2023-03-29T01:01:10.983Z,5.50
2023-03-29T01:06:16.135Z,4.83
2023-03-29T01:11:25.051Z,6.37
2023-03-29T01:16:30.322Z,4.37
2023-03-29T01:21:39.885Z,4.30
2023-03-29T01:26:57.503Z,5.27
2023-03-29T01:32:13.199Z,4.20
2023-03-29T01:37:38.930Z,6.77
2023-03-29T01:42:57.969Z,5.80
2023-03-29T01:48:02.811Z,8.03
2023-03-29T01:53:27.311Z,5.57
2023-03-29T01:58:34.032Z,6.67
2023-03-29T02:03:42.577Z,5.03
2023-03-29T02:08:45.280Z,6.03
2023-03-29T02:13:46.953Z,8.10
2023-03-29T02:18:50.424Z,7.60
2023-03-29T02:23:54.827Z,4.10
2023-03-29T02:28:56.585Z,5.63
2023-03-29T02:34:11.173Z,5.27
2023-03-29T02:39:15.520Z,4.00
2023-03-29T02:44:21.679Z,5.33
2023-03-29T02:49:23.887Z,4.13
2023-03-29T02:54:30.045Z,4.37
2023-03-29T02:59:33.389Z,3.60
2023-03-29T03:04:35.778Z,4.70
2023-03-29T03:09:37.615Z,4.57
2023-03-29T03:14:39.520Z,5.63
2023-03-29T03:19:41.889Z,5.00
2023-03-29T03:24:43.450Z,5.13
2023-03-29T03:29:45.036Z,6.93
2023-03-29T03:34:46.639Z,5.00
2023-03-29T03:39:48.299Z,5.03
2023-03-29T03:44:50.433Z,5.47
2023-03-29T03:49:52.141Z,5.77
2023-03-29T03:54:53.687Z,5.10
2023-03-29T03:59:56.387Z,5.60
2023-03-29T04:04:57.972Z,4.70
2023-03-29T04:09:59.548Z,4.60
2023-03-29T04:15:01.312Z,6.97
2023-03-29T04:20:10.123Z,4.53
2023-03-29T04:25:11.860Z,5.57
2023-03-29T04:30:13.841Z,4.73
2023-03-29T04:35:15.465Z,5.33
2023-03-29T04:40:19.452Z,5.83
2023-03-29T04:45:21.341Z,9.57
2023-03-29T04:50:23.018Z,6.10
2023-03-29T04:55:24.583Z,5.00
2023-03-29T05:00:27.637Z,5.93
2023-03-29T05:05:29.222Z,7.13
2023-03-29T05:10:31.004Z,5.40
2023-03-29T05:15:32.770Z,7.20
2023-03-29T05:20:34.383Z,6.50
2023-03-29T05:25:36.119Z,5.47
2023-03-29T05:30:38.096Z,5.00
2023-03-29T05:35:39.949Z,6.13
2023-03-29T05:40:41.641Z,7.03
2023-03-29T05:45:43.412Z,5.37
2023-03-29T05:50:49.469Z,6.40
2023-03-29T05:55:51.790Z,6.33
2023-03-29T06:00:53.509Z,5.67
2023-03-29T06:05:58.656Z,7.37
2023-03-29T06:11:06.790Z,6.07
2023-03-29T06:16:10.849Z,6.73
2023-03-29T06:21:12.735Z,6.77
2023-03-29T06:26:15.770Z,5.10
2023-03-29T06:31:17.408Z,6.47
2023-03-29T06:36:20.246Z,6.70
2023-03-29T06:41:21.963Z,7.20
2023-03-29T06:46:23.581Z,6.37
2023-03-29T06:51:25.293Z,8.40
2023-03-29T06:56:26.908Z,6.70
2023-03-29T07:01:28.688Z,5.97
2023-03-29T07:06:31.103Z,7.73
2023-03-29T07:11:36.395Z,8.10
2023-03-29T07:16:38.051Z,8.23
2023-03-29T07:21:40.008Z,7.37
2023-03-29T07:26:52.292Z,5.73
2023-03-29T07:32:02.432Z,7.00
2023-03-29T07:37:04.000Z,7.40
2023-03-29T07:42:06.642Z,7.60
2023-03-29T07:47:08.209Z,5.03
2023-03-29T07:52:09.843Z,5.47
2023-03-29T07:57:11.652Z,5.03
2023-03-29T08:02:13.407Z,5.07
2023-03-29T08:07:18.820Z,5.90
2023-03-29T08:17:22.479Z,4.93
2023-03-29T08:22:24.195Z,4.47
2023-03-29T08:27:26.408Z,6.23
2023-03-29T08:32:28.017Z,4.47
2023-03-29T08:37:30.298Z,5.40
2023-03-29T08:42:53.108Z,5.97
2023-03-29T08:47:58.692Z,4.80
2023-03-29T08:53:05.618Z,4.10
2023-03-29T08:58:14.238Z,6.53
2023-03-29T09:03:24.167Z,4.83
2023-03-29T09:08:26.745Z,5.33
2023-03-29T09:13:49.542Z,3.90
2023-03-29T09:18:56.812Z,5.07
2023-03-29T09:24:18.922Z,5.37
2023-03-29T09:29:35.551Z,6.90
2023-03-29T09:34:44.292Z,6.40
2023-03-29T09:39:46.064Z,4.43
2023-03-29T09:44:57.427Z,5.77
2023-03-29T09:50:23.090Z,3.60
2023-03-29T09:55:34.105Z,4.10
2023-03-29T10:00:36.659Z,3.77
2023-03-29T10:05:38.506Z,6.03
2023-03-29T10:10:40.115Z,4.27
2023-03-29T10:15:41.989Z,6.10
2023-03-29T10:20:43.577Z,4.60
2023-03-29T10:25:45.551Z,4.53
2023-03-29T10:30:54.432Z,2.87
2023-03-29T10:35:57.735Z,4.07
2023-03-29T10:41:12.927Z,5.67
2023-03-29T10:46:33.654Z,3.47
2023-03-29T10:51:35.512Z,4.03
2023-03-29T10:56:43.241Z,4.23
2023-03-29T11:06:47.414Z,3.33
2023-03-29T11:12:15.734Z,4.27
2023-03-29T11:17:24.982Z,4.03
2023-03-29T11:22:47.546Z,3.83
2023-03-29T11:27:53.540Z,5.07
2023-03-29T11:33:56.862Z,3.00
2023-03-29T11:39:12.136Z,3.07
2023-03-29T11:44:20.293Z,4.10
2023-03-29T11:49:43.058Z,4.80
2023-03-29T11:55:03.576Z,3.23
2023-03-29T12:00:30.498Z,3.13
2023-03-29T12:05:38.293Z,4.50
2023-03-29T12:11:24.395Z,3.57
2023-03-29T12:16:37.961Z,5.83
2023-03-29T12:21:41.747Z,8.17
2023-03-29T12:26:57.877Z,5.30
2023-03-29T12:32:37.234Z,3.67
2023-03-29T12:38:16.373Z,4.90
2023-03-29T12:43:39.093Z,4.93
2023-03-29T12:48:42.472Z,6.73
2023-03-29T12:53:47.186Z,4.97
2023-03-29T12:59:26.160Z,4.43
2023-03-29T13:04:51.297Z,3.03
2023-03-29T13:10:03.696Z,4.10
2023-03-29T13:15:23.699Z,3.47
2023-03-29T13:20:52.239Z,3.00
2023-03-29T13:25:53.771Z,5.17
2023-03-29T13:30:59.916Z,4.33
2023-03-29T13:36:33.070Z,4.03
2023-03-29T13:41:41.076Z,5.43
2023-03-29T13:46:43.843Z,6.60
2023-03-29T13:52:13.268Z,3.60
2023-03-29T13:57:22.128Z,9.47
2023-03-29T14:02:32.832Z,3.50
2023-03-29T14:07:39.150Z,4.17
2023-03-29T14:12:44.382Z,3.23
2023-03-29T14:17:47.010Z,2.90
2023-03-29T14:22:49.725Z,5.07
2023-03-29T14:27:51.326Z,4.30
2023-03-29T14:32:53.503Z,3.83
2023-03-29T14:37:55.312Z,3.67
2023-03-29T14:42:58.129Z,6.77
2023-03-29T14:48:00.527Z,5.03
2023-03-29T14:53:03.204Z,4.00
2023-03-29T14:58:19.969Z,4.97
2023-03-29T15:03:27.335Z,3.20
2023-03-29T15:08:34.572Z,3.17
2023-03-29T15:13:42.020Z,3.43
2023-03-29T15:18:46.133Z,5.10
2023-03-29T15:23:52.613Z,3.20
2023-03-29T15:29:03.033Z,3.90
2023-03-29T15:34:09.092Z,4.90
2023-03-29T15:39:16.285Z,2.40
2023-03-29T15:44:22.806Z,3.67
2023-03-29T15:49:25.134Z,4.73
2023-03-29T15:54:29.100Z,4.10
2023-03-29T15:59:31.510Z,6.27
2023-03-29T17:00:00.435Z,10.57
2023-03-29T18:10:32.402Z,10.90
2023-03-29T18:15:33.968Z,5.93
2023-03-29T18:20:35.575Z,18.23
2023-03-29T18:25:38.693Z,19.53
2023-03-29T18:30:40.427Z,12.80
2023-03-29T18:35:48.577Z,7.93
2023-03-29T18:40:50.582Z,12.43
2023-03-29T18:45:52.294Z,12.83
2023-03-29T18:50:56.544Z,9.67
2023-03-29T18:55:58.082Z,13.63
2023-03-29T19:01:04.567Z,25.83
2023-03-29T19:06:07.209Z,14.10
2023-03-29T19:11:11.355Z,12.57
2023-03-29T19:16:13.088Z,6.67
2023-03-29T19:21:14.957Z,7.43
2023-03-29T19:26:16.644Z,7.87
2023-03-29T19:31:18.342Z,6.23
2023-03-29T19:36:20.148Z,4.47
2023-03-29T19:41:22.125Z,5.73
2023-03-29T19:46:23.869Z,8.53
2023-03-29T19:51:27.435Z,10.10
2023-03-29T19:56:29.010Z,6.50
2023-03-29T20:01:32.252Z,6.73
2023-03-29T20:06:34.242Z,8.00
2023-03-29T20:11:36.076Z,6.17
2023-03-29T20:16:37.840Z,4.20
2023-03-29T20:21:39.712Z,8.70
2023-03-29T20:26:41.364Z,5.90
2023-03-29T20:31:43.502Z,5.93
2023-03-29T20:36:46.667Z,4.23
2023-03-29T20:41:48.763Z,4.93
2023-03-29T20:47:03.408Z,9.57
2023-03-29T20:52:07.939Z,4.73
2023-03-29T20:57:14.168Z,3.33
2023-03-29T21:02:21.677Z,5.57
2023-03-29T21:07:23.330Z,7.83
2023-03-29T21:12:25.601Z,7.80
2023-03-29T21:17:27.731Z,4.43
2023-03-29T21:22:29.417Z,4.03
2023-03-29T21:27:31.129Z,5.57
2023-03-29T21:32:32.876Z,4.23
2023-03-29T21:37:34.553Z,7.17
2023-03-29T21:42:36.514Z,7.70
2023-03-29T21:47:38.465Z,4.97
2023-03-29T21:52:40.426Z,5.67
2023-03-29T21:57:42.134Z,6.00
2023-03-29T22:02:45.891Z,3.37
2023-03-29T22:07:50.445Z,5.17
2023-03-29T22:12:52.613Z,5.07
2023-03-29T22:17:57.738Z,8.60
2023-03-29T22:23:00.880Z,4.93
2023-03-29T22:28:02.458Z,5.50
2023-03-29T22:33:04.154Z,7.87
2023-03-29T22:38:05.957Z,5.43
2023-03-29T22:43:07.592Z,7.87
2023-03-29T22:48:09.304Z,7.07
2023-03-29T22:53:11.657Z,7.03
2023-03-29T22:58:13.304Z,9.77
2023-03-29T23:03:14.922Z,7.83
2023-03-29T23:08:16.564Z,4.03
2023-03-29T23:13:26.414Z,8.53
2023-03-29T23:18:30.294Z,5.27
2023-03-29T23:23:32.497Z,9.23
2023-03-29T23:28:34.688Z,5.07
2023-03-29T23:33:38.573Z,7.10
2023-03-29T23:38:42.305Z,7.00
2023-03-29T23:43:47.138Z,5.87
2023-03-29T23:48:50.202Z,6.40
2023-03-29T23:58:53.402Z,6.03
